createdAt,value
2019-01-27T00:01:28.404Z,99829.48
2019-01-27T00:03:37.903Z,99826.47
2019-01-27T00:05:44.171Z,99823.42
2019-01-27T00:07:53.132Z,99823.42
2019-01-27T00:09:59.812Z,99815.72
2019-01-27T00:12:06.743Z,99812.30
2019-01-27T00:14:14.811Z,99808.47
2019-01-27T00:16:20.984Z,99807.59
2019-01-27T00:18:27.071Z,99808.02
2019-01-27T00:20:33.469Z,99805.00
2019-01-27T00:22:39.844Z,99807.56
2019-01-27T00:24:46.162Z,99809.28
2019-01-27T00:26:52.412Z,99807.58
2019-01-27T00:28:59.739Z,99803.29
2019-01-27T00:31:06.704Z,99791.75
2019-01-27T00:33:13.184Z,99789.17
2019-01-27T00:35:19.532Z,99785.73
2019-01-27T00:37:27.278Z,99779.71
2019-01-27T00:39:33.696Z,99776.73
2019-01-27T00:41:43.050Z,99778.88
2019-01-27T00:43:49.419Z,99783.16
2019-01-27T00:45:59.543Z,99778.44
2019-01-27T00:48:05.807Z,99777.98
2019-01-27T00:50:16.347Z,99773.25
2019-01-27T00:52:23.460Z,99776.69
2019-01-27T00:54:29.905Z,99778.42
2019-01-27T00:56:37.675Z,99773.72
2019-01-27T00:58:45.038Z,99767.31
2019-01-27T01:00:51.596Z,99756.98
2019-01-27T01:02:57.880Z,99760.43
2019-01-27T01:05:04.143Z,99756.99
2019-01-27T01:07:12.093Z,99759.16
2019-01-27T01:09:20.194Z,99755.28
2019-01-27T01:11:27.962Z,99755.73
2019-01-27T01:13:34.230Z,99763.46
2019-01-27T01:15:40.604Z,99765.17
2019-01-27T01:17:48.495Z,99764.31
2019-01-27T01:19:57.514Z,99772.87
2019-01-27T01:22:03.923Z,99772.89
2019-01-27T01:24:12.262Z,99768.20
2019-01-27T01:26:18.549Z,99759.20
2019-01-27T01:28:25.129Z,99761.36
2019-01-27T01:30:33.116Z,99754.94
2019-01-27T01:32:39.384Z,99756.66
2019-01-27T01:34:45.526Z,99754.08
2019-01-27T01:36:51.677Z,99751.48
2019-01-27T01:38:57.854Z,99744.63
2019-01-27T01:41:04.190Z,99739.92
2019-01-27T01:43:10.724Z,99740.35
2019-01-27T01:45:33.466Z,99731.78
2019-01-27T01:47:41.108Z,99726.22
2019-01-27T01:49:48.718Z,99728.36
2019-01-27T01:51:55.482Z,99727.49
2019-01-27T01:54:02.024Z,99720.63
2019-01-27T01:56:10.062Z,99716.76
2019-01-27T01:58:16.202Z,99712.92
2019-01-27T02:00:28.332Z,99703.91
2019-01-27T02:02:37.549Z,99703.06
2019-01-27T02:04:44.370Z,99707.78
2019-01-27T02:06:50.705Z,99704.34
2019-01-27T02:08:57.670Z,99703.05
2019-01-27T02:11:04.234Z,99697.48
2019-01-27T02:13:10.810Z,99700.94
2019-01-27T02:15:27.800Z,99691.05
2019-01-27T02:17:35.287Z,99693.64
2019-01-27T02:19:41.773Z,99688.91
2019-01-27T02:21:48.180Z,99677.35
2019-01-27T02:23:54.799Z,99673.05
2019-01-27T02:26:01.054Z,99677.35
2019-01-27T02:28:10.074Z,99673.50
2019-01-27T02:30:19.295Z,99672.23
2019-01-27T02:32:25.491Z,99665.80
2019-01-27T02:34:34.201Z,99663.21
2019-01-27T02:36:41.887Z,99665.36
2019-01-27T02:38:47.937Z,99661.50
2019-01-27T02:40:54.314Z,99662.77
2019-01-27T02:43:00.556Z,99666.22
2019-01-27T02:45:20.483Z,99662.36
2019-01-27T02:47:26.715Z,99665.78
2019-01-27T02:49:34.366Z,99665.80
2019-01-27T02:51:41.850Z,99658.91
2019-01-27T02:53:48.055Z,99655.94
2019-01-27T02:55:54.273Z,99652.92
2019-01-27T02:58:00.353Z,99646.06
2019-01-27T03:00:18.694Z,99646.05
2019-01-27T03:02:29.770Z,99643.50
2019-01-27T03:04:36.030Z,99637.09
2019-01-27T03:06:56.071Z,99636.20
2019-01-27T03:09:04.090Z,99645.20
2019-01-27T03:11:13.448Z,99631.48
2019-01-27T03:13:21.301Z,99622.50
2019-01-27T03:15:27.762Z,99618.64
2019-01-27T03:17:36.061Z,99615.20
2019-01-27T03:19:42.381Z,99614.77
2019-01-27T03:21:48.883Z,99607.91
2019-01-27T03:23:55.418Z,99614.34
2019-01-27T03:26:02.174Z,99602.78
2019-01-27T03:28:10.183Z,99602.36
2019-01-27T03:30:24.434Z,99605.34
2019-01-27T03:32:30.588Z,99596.79
2019-01-27T03:34:37.527Z,99599.78
2019-01-27T03:36:43.825Z,99600.20
2019-01-27T03:38:50.300Z,99595.94
2019-01-27T03:40:56.484Z,99593.77
2019-01-27T03:43:02.757Z,99589.92
2019-01-27T03:45:15.989Z,99584.36
2019-01-27T03:47:23.395Z,99574.05
2019-01-27T03:49:32.241Z,99575.35
2019-01-27T03:51:38.780Z,99572.36
2019-01-27T03:53:45.011Z,99575.34
2019-01-27T03:55:52.763Z,99570.19
2019-01-27T03:58:00.460Z,99574.05
2019-01-27T04:00:16.643Z,99562.91
2019-01-27T04:02:23.009Z,99559.47
2019-01-27T04:04:30.593Z,99562.49
2019-01-27T04:06:38.895Z,99554.77
2019-01-27T04:08:45.056Z,99556.04
2019-01-27T04:10:51.206Z,99557.33
2019-01-27T04:12:57.378Z,99555.20
2019-01-27T04:15:05.179Z,99550.05
2019-01-27T04:17:14.299Z,99547.03
2019-01-27T04:19:20.457Z,99550.04
2019-01-27T04:21:28.155Z,99542.76
2019-01-27T04:23:34.411Z,99542.33
2019-01-27T04:25:43.254Z,99535.45
2019-01-27T04:27:50.127Z,99535.47
2019-01-27T04:29:56.886Z,99525.61
2019-01-27T04:32:03.152Z,99524.74
2019-01-27T04:34:09.589Z,99517.02
2019-01-27T04:36:16.304Z,99513.19
2019-01-27T04:38:23.736Z,99512.30
2019-01-27T04:40:29.819Z,99511.45
2019-01-27T04:42:36.278Z,99508.44
2019-01-27T04:44:44.208Z,99509.73
2019-01-27T04:46:50.427Z,99509.72
2019-01-27T04:48:56.981Z,99500.29
2019-01-27T04:51:04.871Z,99501.14
2019-01-27T04:53:12.278Z,99496.88
2019-01-27T04:55:20.138Z,99495.12
2019-01-27T04:57:26.239Z,99489.55
2019-01-27T04:59:32.718Z,99489.55
2019-01-27T05:01:38.958Z,99482.28
2019-01-27T05:03:50.856Z,99482.27
2019-01-27T05:05:56.920Z,99473.26
2019-01-27T05:08:03.891Z,99469.42
2019-01-27T05:10:15.691Z,99460.84
2019-01-27T05:12:22.054Z,99454.41
2019-01-27T05:14:29.703Z,99456.53
2019-01-27T05:16:36.001Z,99448.84
2019-01-27T05:18:42.256Z,99453.98
2019-01-27T05:20:48.829Z,99450.13
2019-01-27T05:22:55.084Z,99441.97
2019-01-27T05:25:01.436Z,99440.25
2019-01-27T05:27:08.952Z,99441.97
2019-01-27T05:29:15.187Z,99435.91
2019-01-27T05:31:21.937Z,99431.56
2019-01-27T05:33:28.441Z,99429.02
2019-01-27T05:35:39.031Z,99422.99
2019-01-27T05:37:45.607Z,99418.62
2019-01-27T05:39:52.296Z,99415.19
2019-01-27T05:41:59.039Z,99414.36
2019-01-27T05:44:05.560Z,99410.52
2019-01-27T05:46:12.177Z,99414.44
2019-01-27T05:48:18.496Z,99409.20
2019-01-27T05:50:24.566Z,99404.97
2019-01-27T05:52:31.358Z,99400.20
2019-01-27T05:54:38.099Z,99397.14
2019-01-27T05:56:44.424Z,99400.56
2019-01-27T05:58:53.603Z,99400.94
2019-01-27T06:01:01.098Z,99393.61
2019-01-27T06:03:07.413Z,99392.38
2019-01-27T06:05:14.015Z,99386.45
2019-01-27T06:07:20.167Z,99392.98
2019-01-27T06:09:26.517Z,99385.30
2019-01-27T06:11:34.435Z,99379.25
2019-01-27T06:13:41.110Z,99378.43
2019-01-27T06:15:47.485Z,99378.75
2019-01-27T06:17:54.024Z,99372.72
2019-01-27T06:20:00.484Z,99371.41
2019-01-27T06:22:08.589Z,99370.88
2019-01-27T06:24:16.604Z,99365.33
2019-01-27T06:26:23.364Z,99358.89
2019-01-27T06:28:30.650Z,99354.13
2019-01-27T06:30:39.812Z,99348.94
2019-01-27T06:32:53.877Z,99353.26
2019-01-27T06:35:00.708Z,99345.53
2019-01-27T06:37:06.913Z,99351.06
2019-01-27T06:39:14.338Z,99346.69
2019-01-27T06:41:20.599Z,99337.27
2019-01-27T06:43:26.901Z,99338.45
2019-01-27T06:45:34.859Z,99338.10
2019-01-27T06:47:42.183Z,99337.37
2019-01-27T06:49:49.325Z,99345.58
2019-01-27T06:51:55.725Z,99341.33
2019-01-27T06:54:01.853Z,99335.34
2019-01-27T06:56:10.674Z,99344.34
2019-01-27T06:58:18.050Z,99349.55
2019-01-27T07:00:29.516Z,99349.98
2019-01-27T07:02:39.790Z,99344.40
2019-01-27T07:04:49.862Z,99343.97
2019-01-27T07:07:08.087Z,99344.81
2019-01-27T07:09:22.852Z,99336.23
2019-01-27T07:11:39.462Z,99325.06
2019-01-27T07:14:06.692Z,99321.21
2019-01-27T07:16:16.329Z,99321.59
2019-01-27T07:18:34.884Z,99318.59
2019-01-27T07:20:43.086Z,99323.71
2019-01-27T07:22:51.202Z,99315.96
2019-01-27T07:25:02.245Z,99306.09
2019-01-27T07:27:12.565Z,99303.89
2019-01-27T07:29:37.723Z,99303.86
2019-01-27T07:32:02.325Z,99306.47
2019-01-27T07:34:24.753Z,99302.63
2019-01-27T07:36:42.681Z,99304.33
2019-01-27T07:38:50.517Z,99299.63
2019-01-27T07:41:15.579Z,99297.03
2019-01-27T07:43:30.854Z,99296.57
2019-01-27T07:45:41.489Z,99304.67
2019-01-27T07:47:56.177Z,99299.06
2019-01-27T07:50:25.156Z,99293.91
2019-01-27T07:52:34.613Z,99295.62
2019-01-27T07:54:42.704Z,99288.73
2019-01-27T07:56:55.425Z,99286.16
2019-01-27T07:59:06.485Z,99275.36
2019-01-27T08:01:14.486Z,99273.25
2019-01-27T08:03:22.449Z,99289.09
2019-01-27T08:05:46.662Z,99286.92
2019-01-27T08:07:57.840Z,99289.07
2019-01-27T08:10:08.076Z,99275.33
2019-01-27T08:12:17.231Z,99277.91
2019-01-27T08:14:31.331Z,99273.64
2019-01-27T08:16:52.702Z,99271.89
2019-01-27T08:19:13.090Z,99266.31
2019-01-27T08:21:23.550Z,99268.89
2019-01-27T08:23:38.700Z,99263.70
2019-01-27T08:25:47.963Z,99261.95
2019-01-27T08:27:58.391Z,99265.78
2019-01-27T08:30:14.321Z,99259.34
2019-01-27T08:32:20.501Z,99253.69
2019-01-27T08:34:31.500Z,99246.39
2019-01-27T08:36:42.279Z,99245.09
2019-01-27T08:39:07.180Z,99235.15
2019-01-27T08:41:17.936Z,99227.45
2019-01-27T08:43:27.001Z,99229.13
2019-01-27T08:45:38.850Z,99225.63
2019-01-27T08:47:46.380Z,99220.04
2019-01-27T08:49:52.760Z,99229.06
2019-01-27T08:51:59.120Z,99224.77
2019-01-27T08:54:05.551Z,99228.12
2019-01-27T08:56:12.100Z,99231.95
2019-01-27T08:58:20.002Z,99229.38
2019-01-27T09:00:27.827Z,99223.36
2019-01-27T09:02:36.000Z,99219.92
2019-01-27T09:04:50.764Z,99221.25
2019-01-27T09:06:58.878Z,99219.06
2019-01-27T09:09:18.951Z,99221.98
2019-01-27T09:11:32.901Z,99211.59
2019-01-27T09:13:44.590Z,99209.83
2019-01-27T09:15:55.912Z,99211.08
2019-01-27T09:18:08.797Z,99211.94
2019-01-27T09:20:27.413Z,99204.89
2019-01-27T09:22:41.260Z,99197.02
2019-01-27T09:24:59.387Z,99200.50
2019-01-27T09:27:07.400Z,99197.48
2019-01-27T09:29:15.743Z,99198.73
2019-01-27T09:31:26.780Z,99193.48
2019-01-27T09:33:35.917Z,99192.56
2019-01-27T09:35:54.611Z,99198.88
2019-01-27T09:38:05.330Z,99202.23
2019-01-27T09:40:19.161Z,99201.31
2019-01-27T09:42:29.329Z,99196.53
2019-01-27T09:44:48.998Z,99195.20
2019-01-27T09:47:15.621Z,99185.72
2019-01-27T09:49:38.501Z,99194.23
2019-01-27T09:51:48.585Z,99187.77
2019-01-27T09:54:11.980Z,99188.53
2019-01-27T09:56:23.168Z,99186.28
2019-01-27T09:58:46.320Z,99190.62
2019-01-27T10:00:57.605Z,99193.54
2019-01-27T10:03:10.423Z,99184.97
2019-01-27T10:05:18.620Z,99185.34
2019-01-27T10:07:36.879Z,99184.92
2019-01-27T10:09:50.801Z,99177.56
2019-01-27T10:12:01.773Z,99170.23
2019-01-27T10:14:16.127Z,99166.35
2019-01-27T10:16:30.677Z,99165.39
2019-01-27T10:18:45.874Z,99156.79
2019-01-27T10:21:01.520Z,99162.33
2019-01-27T10:23:18.334Z,99152.84
2019-01-27T10:25:29.560Z,99146.28
2019-01-27T10:27:53.489Z,99147.18
2019-01-27T10:30:01.481Z,99132.07
2019-01-27T10:32:10.423Z,99135.51
2019-01-27T10:34:28.801Z,99132.92
2019-01-27T10:36:47.191Z,99132.42
2019-01-27T10:39:05.680Z,99123.89
2019-01-27T10:41:15.280Z,99129.85
2019-01-27T10:43:41.721Z,99131.13
2019-01-27T10:46:01.804Z,99129.31
2019-01-27T10:48:13.600Z,99129.73
2019-01-27T10:50:30.929Z,99124.99
2019-01-27T10:52:38.911Z,99111.64
2019-01-27T10:54:59.010Z,99106.12
2019-01-27T10:57:06.950Z,99097.98
2019-01-27T10:59:22.168Z,99099.61
2019-01-27T11:01:29.122Z,99089.73
2019-01-27T11:03:51.383Z,99089.69
2019-01-27T11:06:09.620Z,99088.82
2019-01-27T11:08:17.425Z,99083.28
2019-01-27T11:10:32.884Z,99082.86
2019-01-27T11:12:56.659Z,99071.23
2019-01-27T11:15:09.984Z,99072.91
2019-01-27T11:17:34.708Z,99069.46
2019-01-27T11:19:45.859Z,99057.34
2019-01-27T11:21:51.872Z,99061.13
2019-01-27T11:24:10.575Z,99059.36
2019-01-27T11:26:19.899Z,99056.70
2019-01-27T11:28:31.229Z,99054.85
2019-01-27T11:30:43.678Z,99049.23
2019-01-27T11:32:55.618Z,99054.77
2019-01-27T11:35:24.330Z,99049.84
2019-01-27T11:37:42.808Z,99046.31
2019-01-27T11:40:09.481Z,99052.71
2019-01-27T11:42:20.515Z,99038.00
2019-01-27T11:44:28.569Z,99042.00
2019-01-27T11:46:36.455Z,99036.84
2019-01-27T11:48:44.714Z,99031.73
2019-01-27T11:50:52.927Z,99031.24
2019-01-27T11:52:59.241Z,99018.31
2019-01-27T11:55:06.788Z,99016.10
2019-01-27T11:57:19.311Z,99010.13
2019-01-27T11:59:26.133Z,99007.47
2019-01-27T12:01:32.721Z,99004.81
2019-01-27T12:03:39.059Z,98998.28
2019-01-27T12:05:45.717Z,99001.43
2019-01-27T12:07:52.508Z,98998.36
2019-01-27T12:09:58.907Z,98993.09
2019-01-27T12:12:05.637Z,98995.61
2019-01-27T12:14:12.765Z,98994.66
2019-01-27T12:16:19.405Z,98992.52
2019-01-27T12:18:25.780Z,98987.70
2019-01-27T12:20:32.709Z,98995.12
2019-01-27T12:22:40.058Z,98984.61
2019-01-27T12:24:47.541Z,98982.88
2019-01-27T12:26:54.551Z,98975.47
2019-01-27T12:29:01.259Z,98964.11
2019-01-27T12:31:07.995Z,98963.47
2019-01-27T12:33:14.485Z,98959.85
2019-01-27T12:35:21.146Z,98959.47
2019-01-27T12:37:28.848Z,98964.64
2019-01-27T12:39:35.761Z,98963.86
2019-01-27T12:41:44.802Z,98958.36
2019-01-27T12:43:52.564Z,98948.78
2019-01-27T12:45:59.204Z,98945.08
2019-01-27T12:48:06.522Z,98940.70
2019-01-27T12:50:16.087Z,98949.89
2019-01-27T12:52:23.142Z,98945.06
2019-01-27T12:54:29.563Z,98945.06
2019-01-27T12:56:36.266Z,98938.82
2019-01-27T12:58:43.003Z,98936.21
2019-01-27T13:00:53.870Z,98929.95
2019-01-27T13:03:00.813Z,98936.25
2019-01-27T13:05:10.327Z,98937.11
2019-01-27T13:07:16.262Z,98944.77
2019-01-27T13:09:22.694Z,98930.03
2019-01-27T13:11:29.697Z,98918.28
2019-01-27T13:13:36.952Z,98918.70
2019-01-27T13:15:45.449Z,98932.55
2019-01-27T13:17:52.032Z,98937.72
2019-01-27T13:19:59.799Z,98938.66
2019-01-27T13:22:06.916Z,98930.53
2019-01-27T13:24:13.649Z,98934.58
2019-01-27T13:26:20.352Z,98932.95
2019-01-27T13:28:26.943Z,98932.07
2019-01-27T13:30:33.699Z,98931.93
2019-01-27T13:32:40.412Z,98928.88
2019-01-27T13:34:47.101Z,98917.09
2019-01-27T13:36:53.442Z,98912.23
2019-01-27T13:39:01.751Z,98917.77
2019-01-27T13:41:09.623Z,98922.42
2019-01-27T13:43:16.522Z,98912.86
2019-01-27T13:45:29.802Z,98910.36
2019-01-27T13:47:36.207Z,98909.06
2019-01-27T13:49:42.907Z,98906.03
2019-01-27T13:51:50.064Z,98902.48
2019-01-27T13:53:56.862Z,98911.04
2019-01-27T13:56:03.591Z,98907.66
2019-01-27T13:58:10.327Z,98910.36
2019-01-27T14:00:33.265Z,98907.44
2019-01-27T14:02:41.772Z,98908.79
2019-01-27T14:04:48.712Z,98904.08
2019-01-27T14:06:55.355Z,98906.37
2019-01-27T14:09:02.079Z,98903.86
2019-01-27T14:11:10.984Z,98901.33
2019-01-27T14:13:17.609Z,98892.77
2019-01-27T14:15:30.763Z,98890.98
2019-01-27T14:17:37.612Z,98887.42
2019-01-27T14:19:44.373Z,98890.70
2019-01-27T14:21:51.193Z,98881.27
2019-01-27T14:23:57.842Z,98879.14
2019-01-27T14:26:04.700Z,98880.87
2019-01-27T14:28:11.152Z,98882.58
2019-01-27T14:30:27.465Z,98882.17
2019-01-27T14:32:34.522Z,98881.31
2019-01-27T14:34:41.763Z,98878.34
2019-01-27T14:36:48.503Z,98869.75
2019-01-27T14:38:55.392Z,98871.38
2019-01-27T14:41:02.123Z,98863.67
2019-01-27T14:43:08.812Z,98868.84
2019-01-27T14:45:19.442Z,98866.20
2019-01-27T14:47:26.139Z,98864.49
2019-01-27T14:49:32.924Z,98859.73
2019-01-27T14:51:39.794Z,98856.70
2019-01-27T14:53:46.810Z,98855.41
2019-01-27T14:55:53.458Z,98859.30
2019-01-27T14:58:00.186Z,98861.00
2019-01-27T15:00:20.266Z,98856.27
2019-01-27T15:02:26.928Z,98860.59
2019-01-27T15:04:33.928Z,98862.30
2019-01-27T15:06:40.688Z,98867.47
2019-01-27T15:08:47.277Z,98863.97
2019-01-27T15:10:54.068Z,98854.97
2019-01-27T15:13:01.185Z,98863.17
2019-01-27T15:15:14.388Z,98865.77
2019-01-27T15:17:21.339Z,98862.30
2019-01-27T15:19:28.249Z,98863.59
2019-01-27T15:21:35.037Z,98859.27
2019-01-27T15:23:41.488Z,98861.38
2019-01-27T15:25:48.887Z,98862.21
2019-01-27T15:27:55.782Z,98864.80
2019-01-27T15:30:03.582Z,98868.62
2019-01-27T15:32:10.473Z,98868.62
2019-01-27T15:34:17.184Z,98868.59
2019-01-27T15:36:23.991Z,98867.72
2019-01-27T15:38:31.096Z,98857.80
2019-01-27T15:40:37.774Z,98855.59
2019-01-27T15:42:45.072Z,98854.27
2019-01-27T15:44:51.894Z,98855.16
2019-01-27T15:46:59.035Z,98852.13
2019-01-27T15:49:06.182Z,98849.89
2019-01-27T15:51:12.854Z,98842.13
2019-01-27T15:53:19.910Z,98837.45
2019-01-27T15:55:26.830Z,98839.16
2019-01-27T15:57:34.657Z,98833.57
2019-01-27T15:59:42.743Z,98830.56
2019-01-27T16:01:49.726Z,98833.16
2019-01-27T16:03:56.778Z,98835.72
2019-01-27T16:06:07.507Z,98833.92
2019-01-27T16:08:15.749Z,98829.63
2019-01-27T16:10:24.347Z,98829.19
2019-01-27T16:12:32.350Z,98826.22
2019-01-27T16:14:39.619Z,98823.57
2019-01-27T16:16:46.420Z,98823.57
2019-01-27T16:18:58.864Z,98823.57
2019-01-27T16:21:01.732Z,98826.57
2019-01-27T16:23:16.175Z,98814.48
2019-01-27T16:25:23.671Z,98816.12
2019-01-27T16:27:30.647Z,98816.48
2019-01-27T16:29:39.359Z,98810.45
2019-01-27T16:31:47.957Z,98813.86
2019-01-27T16:34:00.492Z,98818.13
2019-01-27T16:36:07.851Z,98805.25
2019-01-27T16:38:14.610Z,98811.66
2019-01-27T16:40:21.401Z,98811.21
2019-01-27T16:42:28.361Z,98818.95
2019-01-27T16:44:35.168Z,98822.84
2019-01-27T16:46:41.904Z,98823.69
2019-01-27T16:48:48.691Z,98820.63
2019-01-27T16:50:57.342Z,98814.56
2019-01-27T16:53:04.053Z,98817.56
2019-01-27T16:55:21.768Z,98818.42
2019-01-27T16:57:29.651Z,98818.89
2019-01-27T16:59:36.660Z,98818.89
2019-01-27T17:01:43.661Z,98812.39
2019-01-27T17:03:50.692Z,98801.19
2019-01-27T17:05:57.741Z,98798.94
2019-01-27T17:08:04.570Z,98807.22
2019-01-27T17:10:18.465Z,98805.92
2019-01-27T17:12:25.401Z,98797.80
2019-01-27T17:14:32.161Z,98799.56
2019-01-27T17:16:38.848Z,98802.16
2019-01-27T17:18:46.571Z,98800.77
2019-01-27T17:20:53.872Z,98800.77
2019-01-27T17:23:01.538Z,98800.73
2019-01-27T17:25:11.731Z,98799.86
2019-01-27T17:27:18.228Z,98799.38
2019-01-27T17:29:25.408Z,98798.50
2019-01-27T17:31:33.291Z,98794.62
2019-01-27T17:33:40.572Z,98793.33
2019-01-27T17:35:47.361Z,98792.88
2019-01-27T17:37:54.422Z,98792.00
2019-01-27T17:40:01.518Z,98791.53
2019-01-27T17:42:08.418Z,98791.53
2019-01-27T17:44:15.386Z,98787.20
2019-01-27T17:46:22.178Z,98791.94
2019-01-27T17:48:29.058Z,98795.41
2019-01-27T17:50:36.158Z,98794.53
2019-01-27T17:52:43.200Z,98787.20
2019-01-27T17:54:50.318Z,98791.94
2019-01-27T17:57:01.627Z,98795.73
2019-01-27T17:59:11.414Z,98790.55
2019-01-27T18:01:35.604Z,98793.05
2019-01-27T18:03:56.889Z,98790.45
2019-01-27T18:06:08.364Z,98791.72
2019-01-27T18:08:16.931Z,98798.55
2019-01-27T18:10:25.223Z,98789.89
2019-01-27T18:12:43.029Z,98794.16
2019-01-27T18:14:49.843Z,98791.98
2019-01-27T18:16:56.863Z,98784.55
2019-01-27T18:19:03.744Z,98788.00
2019-01-27T18:21:10.774Z,98783.67
2019-01-27T18:23:17.593Z,98788.76
2019-01-27T18:25:24.692Z,98785.31
2019-01-27T18:27:31.347Z,98785.75
2019-01-27T18:29:38.492Z,98788.31
2019-01-27T18:31:45.398Z,98786.07
2019-01-27T18:33:52.380Z,98781.74
2019-01-27T18:35:58.930Z,98783.45
2019-01-27T18:38:06.109Z,98781.30
2019-01-27T18:40:14.195Z,98781.34
2019-01-27T18:42:21.102Z,98776.53
2019-01-27T18:44:28.415Z,98764.38
2019-01-27T18:46:35.014Z,98751.42
2019-01-27T18:48:41.758Z,98744.06
2019-01-27T18:50:48.698Z,98753.06
2019-01-27T18:52:57.157Z,98752.62
2019-01-27T18:55:06.290Z,98759.95
2019-01-27T18:57:14.904Z,98774.98
2019-01-27T18:59:24.752Z,98771.06
2019-01-27T19:01:45.330Z,98771.47
2019-01-27T19:04:09.118Z,98764.08
2019-01-27T19:06:20.771Z,98765.38
2019-01-27T19:08:29.240Z,98764.05
2019-01-27T19:10:49.982Z,98770.08
2019-01-27T19:12:58.849Z,98762.30
2019-01-27T19:15:10.688Z,98766.54
2019-01-27T19:17:30.012Z,98770.86
2019-01-27T19:19:54.570Z,98774.75
2019-01-27T19:22:03.177Z,98773.45
2019-01-27T19:24:13.540Z,98778.61
2019-01-27T19:26:24.770Z,98780.34
2019-01-27T19:28:49.510Z,98777.75
2019-01-27T19:31:06.988Z,98768.69
2019-01-27T19:33:18.680Z,98772.57
2019-01-27T19:35:36.010Z,98779.05
2019-01-27T19:37:53.588Z,98777.75
2019-01-27T19:40:02.312Z,98774.75
2019-01-27T19:42:10.707Z,98777.38
2019-01-27T19:44:26.064Z,98777.38
2019-01-27T19:46:50.046Z,98776.08
2019-01-27T19:49:17.004Z,98778.23
2019-01-27T19:51:33.496Z,98772.20
2019-01-27T19:53:50.925Z,98777.38
2019-01-27T19:56:06.910Z,98774.00
2019-01-27T19:58:22.396Z,98779.18
2019-01-27T20:00:31.187Z,98779.24
2019-01-27T20:02:56.214Z,98774.06
2019-01-27T20:05:04.933Z,98774.06
2019-01-27T20:07:28.946Z,98774.54
2019-01-27T20:09:54.525Z,98775.83
2019-01-27T20:12:03.873Z,98773.31
2019-01-27T20:14:18.946Z,98770.84
2019-01-27T20:16:40.146Z,98767.81
2019-01-27T20:18:47.185Z,98780.77
2019-01-27T20:20:59.903Z,98779.47
2019-01-27T20:23:06.354Z,98772.17
2019-01-27T20:25:18.305Z,98772.65
2019-01-27T20:27:26.785Z,98781.23
2019-01-27T20:29:39.762Z,98778.64
2019-01-27T20:31:54.285Z,98786.04
2019-01-27T20:34:02.229Z,98786.89
2019-01-27T20:36:10.865Z,98790.37
2019-01-27T20:38:37.666Z,98790.37
2019-01-27T20:41:00.385Z,98791.69
2019-01-27T20:43:21.265Z,98786.52
2019-01-27T20:45:39.185Z,98793.81
2019-01-27T20:47:48.149Z,98799.44
2019-01-27T20:49:56.540Z,98794.28
2019-01-27T20:52:10.927Z,98794.28
2019-01-27T20:54:25.525Z,98796.41
2019-01-27T20:56:34.486Z,98792.10
2019-01-27T20:58:49.092Z,98794.28
2019-01-27T21:01:00.848Z,98792.61
2019-01-27T21:03:09.685Z,98802.56
2019-01-27T21:05:23.765Z,98795.67
2019-01-27T21:07:38.365Z,98798.77
2019-01-27T21:10:04.278Z,98799.72
2019-01-27T21:12:15.685Z,98799.74
2019-01-27T21:14:29.933Z,98801.13
2019-01-27T21:16:38.526Z,98803.81
2019-01-27T21:18:50.209Z,98797.84
2019-01-27T21:20:57.325Z,98805.73
2019-01-27T21:23:04.505Z,98803.74
2019-01-27T21:25:14.105Z,98806.86
2019-01-27T21:27:20.925Z,98806.54
2019-01-27T21:29:28.133Z,98806.22
2019-01-27T21:31:35.245Z,98804.98
2019-01-27T21:33:44.259Z,98808.89
2019-01-27T21:35:50.965Z,98811.98
2019-01-27T21:37:57.945Z,98811.57
2019-01-27T21:40:07.445Z,98812.07
2019-01-27T21:42:14.544Z,98804.78
2019-01-27T21:44:21.805Z,98807.45
2019-01-27T21:46:28.425Z,98803.66
2019-01-27T21:48:35.066Z,98808.06
2019-01-27T21:50:41.886Z,98800.89
2019-01-27T21:52:50.187Z,98806.51
2019-01-27T21:54:56.785Z,98793.16
2019-01-27T21:57:03.613Z,98794.89
2019-01-27T21:59:10.465Z,98795.83
2019-01-27T22:01:16.568Z,98798.84
2019-01-27T22:03:42.634Z,98800.57
2019-01-27T22:05:49.566Z,98801.01
2019-01-27T22:07:56.015Z,98799.69
2019-01-27T22:10:03.008Z,98807.39
2019-01-27T22:12:09.526Z,98801.77
2019-01-27T22:14:17.734Z,98802.19
2019-01-27T22:16:24.225Z,98795.25
2019-01-27T22:18:30.848Z,98802.98
2019-01-27T22:20:37.185Z,98800.84
2019-01-27T22:22:43.888Z,98801.27
2019-01-27T22:24:50.558Z,98801.69
2019-01-27T22:26:57.325Z,98802.95
2019-01-27T22:29:05.491Z,98804.25
2019-01-27T22:31:13.206Z,98797.78
2019-01-27T22:33:19.887Z,98797.28
2019-01-27T22:35:26.305Z,98794.69
2019-01-27T22:37:32.845Z,98793.81
2019-01-27T22:39:39.234Z,98790.38
2019-01-27T22:41:46.347Z,98788.64
2019-01-27T22:43:52.766Z,98789.87
2019-01-27T22:45:59.165Z,98797.19
2019-01-27T22:48:05.507Z,98798.08
2019-01-27T22:50:17.546Z,98798.52
2019-01-27T22:52:23.986Z,98795.13
2019-01-27T22:54:30.325Z,98792.95
2019-01-27T22:56:36.965Z,98793.34
2019-01-27T22:58:43.086Z,98791.22
2019-01-27T23:01:01.826Z,98790.75
2019-01-27T23:03:09.725Z,98791.60
2019-01-27T23:05:16.121Z,98785.98
2019-01-27T23:07:22.566Z,98777.38
2019-01-27T23:09:29.106Z,98784.75
2019-01-27T23:11:35.706Z,98785.13
2019-01-27T23:13:42.155Z,98782.11
2019-01-27T23:15:48.757Z,98785.11
2019-01-27T23:17:55.466Z,98783.38
2019-01-27T23:20:02.005Z,98794.58
2019-01-27T23:22:09.236Z,98793.31
2019-01-27T23:24:16.745Z,98787.25
2019-01-27T23:26:23.086Z,98787.63
2019-01-27T23:28:29.425Z,98789.84
2019-01-27T23:30:36.027Z,98794.52
2019-01-27T23:32:46.886Z,98790.70
2019-01-27T23:34:53.245Z,98794.52
2019-01-27T23:36:59.666Z,98791.48
2019-01-27T23:39:09.074Z,98788.45
2019-01-27T23:41:15.627Z,98790.55
2019-01-27T23:43:21.934Z,98785.81
2019-01-27T23:45:28.266Z,98785.81
2019-01-27T23:47:34.926Z,98786.22
2019-01-27T23:49:41.546Z,98793.95
2019-01-27T23:51:47.946Z,98800.43
2019-01-27T23:53:54.405Z,98802.16
2019-01-27T23:56:01.566Z,98799.16
2019-01-27T23:58:07.986Z,98804.87
